Time;durP1;ratioP1;P1;durP2;ratioP2;P2;SDS_P1;SDS_P2;PMS_P1;PMS_P2;Temp;Humidity;BMP_temperature;BMP_pressure;BME280_temperature;BME280_humidity;BME280_pressure;Samples;Min_cycle;Max_cycle;Signal;HPM_P1;HPM_P2
2023/02/03 00:00:53;;;;;;;14.27;12.60;;;;;20.40;101303.00;;;;2102307;28;20223;-54
2023/02/03 00:01:54;;;;;;;14.67;12.90;;;;;20.40;101296.00;;;;2102925;28;20219;-54
2023/02/03 00:02:54;;;;;;;14.50;12.90;;;;;20.40;101305.00;;;;2093923;28;20723;-52
2023/02/03 00:03:54;;;;;;;14.63;13.20;;;;;20.40;101290.00;;;;2094072;28;21079;-50
2023/02/03 00:04:55;;;;;;;15.83;13.47;;;;;20.40;101297.00;;;;2102857;28;20215;-52
2023/02/03 00:05:55;;;;;;;15.60;13.53;;;;;20.40;101278.00;;;;2102783;28;20219;-53
2023/02/03 00:06:55;;;;;;;15.10;13.27;;;;;20.40;101286.00;;;;2102749;28;20215;-52
2023/02/03 00:07:56;;;;;;;15.77;13.37;;;;;20.40;101291.00;;;;2093255;28;20857;-52
2023/02/03 00:08:57;;;;;;;15.70;13.93;;;;;20.40;101285.00;;;;2085277;28;20803;-53
2023/02/03 00:09:58;;;;;;;13.80;12.40;;;;;20.40;101286.00;;;;2085628;28;20217;-52
2023/02/03 00:10:58;;;;;;;13.77;12.30;;;;;20.40;101288.00;;;;2091834;28;20239;-53
2023/02/03 00:11:58;;;;;;;14.03;12.27;;;;;20.40;101289.00;;;;2093751;28;20310;-53
2023/02/03 00:12:59;;;;;;;14.33;11.83;;;;;20.40;101284.00;;;;2085694;28;20754;-52
2023/02/03 00:13:59;;;;;;;15.60;13.10;;;;;20.30;101287.00;;;;2077126;28;20217;-52
2023/02/03 00:14:59;;;;;;;14.07;12.47;;;;;20.30;101286.00;;;;2085660;28;20209;-53
2023/02/03 00:16:05;;;;;;;14.40;12.20;;;;;20.30;101291.00;;;;2093743;28;20227;-53
2023/02/03 00:17:05;;;;;;;12.88;11.43;;;;;20.40;101293.00;;;;2102428;28;20237;-52
2023/02/03 00:18:05;;;;;;;14.13;11.93;;;;;20.40;101293.00;;;;2101264;28;20222;-53
2023/02/03 00:19:06;;;;;;;15.63;10.67;;;;;20.30;101283.00;;;;2102614;28;20223;-54
2023/02/03 00:20:06;;;;;;;13.20;11.47;;;;;20.30;101293.00;;;;2102566;28;20212;-52
2023/02/03 00:21:07;;;;;;;14.47;11.70;;;;;20.30;101286.00;;;;2102963;28;20215;-54
2023/02/03 00:22:07;;;;;;;13.03;10.70;;;;;20.30;101293.00;;;;2102501;28;20703;-51
2023/02/03 00:23:08;;;;;;;12.63;10.40;;;;;20.30;101290.00;;;;2101729;28;20752;-51
2023/02/03 00:24:09;;;;;;;12.48;10.65;;;;;20.30;101289.00;;;;2102895;28;20614;-53
2023/02/03 00:25:09;;;;;;;13.90;11.90;;;;;20.30;101287.00;;;;2102380;28;20287;-51
2023/02/03 00:26:11;;;;;;;14.47;11.37;;;;;20.30;101277.00;;;;2102746;28;20691;-52
2023/02/03 00:27:13;;;;;;;12.00;10.80;;;;;20.30;101281.00;;;;2102659;28;20214;-53
2023/02/03 00:28:13;;;;;;;12.68;10.93;;;;;20.30;101278.00;;;;2101439;28;20215;-53
2023/02/03 00:29:13;;;;;;;11.77;10.57;;;;;20.30;101267.00;;;;2102488;28;20230;-54
2023/02/03 00:30:14;;;;;;;12.23;10.90;;;;;20.30;101270.00;;;;2102392;28;20208;-52
2023/02/03 00:31:16;;;;;;;11.33;9.97;;;;;20.30;101276.00;;;;2101495;28;20233;-50
2023/02/03 00:32:16;;;;;;;12.57;10.57;;;;;20.30;101273.00;;;;2101597;28;20250;-51
2023/02/03 00:33:16;;;;;;;11.40;10.30;;;;;20.30;101272.00;;;;2102269;28;20246;-53
2023/02/03 00:34:17;;;;;;;12.50;10.50;;;;;20.30;101285.00;;;;2100736;28;20257;-53
2023/02/03 00:35:17;;;;;;;13.57;9.43;;;;;20.30;101269.00;;;;2101979;28;20253;-53
2023/02/03 00:36:17;;;;;;;10.63;9.43;;;;;20.30;101281.00;;;;2092823;28;20308;-53
2023/02/03 00:37:18;;;;;;;10.50;9.27;;;;;20.30;101280.00;;;;2093145;28;20235;-52
2023/02/03 00:38:18;;;;;;;11.77;10.00;;;;;20.30;101286.00;;;;2101089;28;20291;-53
2023/02/03 00:39:18;;;;;;;12.27;10.37;;;;;20.30;101273.00;;;;2102481;28;20215;-51
2023/02/03 00:40:19;;;;;;;10.50;9.50;;;;;20.30;101271.00;;;;2101851;28;20265;-53
2023/02/03 00:41:20;;;;;;;10.67;9.60;;;;;20.30;101271.00;;;;2102251;28;20212;-53
2023/02/03 00:42:20;;;;;;;12.03;10.00;;;;;20.30;101266.00;;;;2102329;28;20537;-53
2023/02/03 00:43:20;;;;;;;13.40;10.90;;;;;20.10;101259.00;;;;2101963;28;20204;-52
2023/02/03 00:44:21;;;;;;;9.57;8.67;;;;;20.20;101270.00;;;;2101612;28;20212;-51
2023/02/03 00:45:21;;;;;;;11.80;9.10;;;;;20.20;101266.00;;;;2102308;28;20224;-53
2023/02/03 00:46:21;;;;;;;10.10;9.13;;;;;20.20;101278.00;;;;2093300;28;20351;-53
2023/02/03 00:47:22;;;;;;;11.40;8.47;;;;;20.20;101276.00;;;;2093078;28;20219;-53
2023/02/03 00:48:22;;;;;;;10.73;9.63;;;;;20.30;101291.00;;;;2102885;28;20211;-53
2023/02/03 00:49:22;;;;;;;10.30;9.10;;;;;20.30;101287.00;;;;2094081;28;20303;-53
2023/02/03 00:50:23;;;;;;;10.37;9.20;;;;;20.20;101273.00;;;;2094845;28;20728;-52
2023/02/03 00:51:23;;;;;;;9.83;8.63;;;;;20.20;101282.00;;;;2103528;28;20282;-52
2023/02/03 00:52:23;;;;;;;9.73;8.73;;;;;20.30;101275.00;;;;2103743;28;20756;-52
2023/02/03 00:53:24;;;;;;;10.07;9.00;;;;;20.30;101272.00;;;;2103635;28;20264;-53
2023/02/03 00:54:24;;;;;;;9.17;8.27;;;;;20.20;101268.00;;;;2094403;28;20772;-53
2023/02/03 00:55:24;;;;;;;9.50;8.60;;;;;20.10;101284.00;;;;2095007;28;20204;-54
2023/02/03 00:56:25;;;;;;;9.77;8.60;;;;;20.20;101242.00;;;;2103889;28;20222;-53
2023/02/03 00:57:25;;;;;;;9.53;8.53;;;;;20.20;101278.00;;;;2104028;28;20237;-51
2023/02/03 00:58:26;;;;;;;9.60;8.40;;;;;20.20;101280.00;;;;2101399;28;20597;-52
2023/02/03 00:59:26;;;;;;;9.20;7.70;;;;;20.20;101285.00;;;;2104084;28;20204;-52
2023/02/03 01:00:26;;;;;;;10.30;8.47;;;;;20.20;101296.00;;;;2096894;28;20211;-52
2023/02/03 01:01:27;;;;;;;11.30;8.40;;;;;20.20;101300.00;;;;2104167;28;20657;-52
2023/02/03 01:02:27;;;;;;;8.93;7.90;;;;;20.20;101305.00;;;;2104126;28;20943;-53
2023/02/03 01:03:27;;;;;;;9.33;8.33;;;;;20.20;101320.00;;;;2104147;28;20207;-52
2023/02/03 01:04:27;;;;;;;9.50;7.53;;;;;20.20;101317.00;;;;2103659;28;20244;-51
2023/02/03 01:05:28;;;;;;;8.53;7.73;;;;;20.20;101309.00;;;;2103817;28;20241;-53
2023/02/03 01:06:28;;;;;;;8.83;7.40;;;;;20.20;101321.00;;;;2104174;28;20211;-51
2023/02/03 01:07:31;;;;;;;8.30;7.50;;;;;20.20;101313.00;;;;2103764;28;20589;-53
2023/02/03 01:08:31;;;;;;;7.88;7.07;;;;;20.20;101315.00;;;;2094355;28;20601;-52
2023/02/03 01:09:33;;;;;;;8.70;7.53;;;;;20.20;101314.00;;;;2095254;28;20251;-52
2023/02/03 01:10:36;;;;;;;8.70;7.40;;;;;20.20;101316.00;;;;2104120;28;20215;-54
2023/02/03 01:11:36;;;;;;;8.35;7.03;;;;;20.20;101325.00;;;;2086689;28;20239;-50
2023/02/03 01:12:36;;;;;;;8.17;7.33;;;;;20.20;101329.00;;;;2086937;28;20681;-52
2023/02/03 01:13:37;;;;;;;10.03;8.10;;;;;20.20;101321.00;;;;2104079;28;20697;-52
2023/02/03 01:14:37;;;;;;;8.93;7.77;;;;;20.20;101321.00;;;;2104152;28;20888;-52
2023/02/03 01:15:46;;;;;;;9.40;8.50;;;;;20.20;101327.00;;;;2104171;28;20719;-53
2023/02/03 01:16:46;;;;;;;7.80;7.05;;;;;20.20;101333.00;;;;2094662;28;20648;-51
2023/02/03 01:17:46;;;;;;;8.60;7.70;;;;;20.10;101328.00;;;;2095657;28;20314;-52
2023/02/03 01:18:47;;;;;;;8.70;7.70;;;;;20.10;101342.00;;;;2103093;28;20223;-53
2023/02/03 01:19:47;;;;;;;8.43;7.60;;;;;20.10;101346.00;;;;2104216;28;20226;-53
2023/02/03 01:20:47;;;;;;;7.33;6.50;;;;;20.10;101343.00;;;;2086565;28;20216;-54
2023/02/03 01:21:48;;;;;;;8.80;7.20;;;;;20.10;101346.00;;;;2086520;28;20223;-52
2023/02/03 01:22:48;;;;;;;8.00;7.03;;;;;20.10;101355.00;;;;2103938;28;20224;-51
2023/02/03 01:23:49;;;;;;;9.03;7.80;;;;;20.20;101345.00;;;;2103966;28;20253;-53
2023/02/03 01:24:49;;;;;;;6.93;6.23;;;;;20.20;101346.00;;;;2103922;28;20215;-51
2023/02/03 01:25:50;;;;;;;7.97;6.97;;;;;20.10;101344.00;;;;2103422;28;20457;-53
2023/02/03 01:26:50;;;;;;;7.23;6.53;;;;;20.10;101343.00;;;;2103462;28;20226;-54
2023/02/03 01:27:50;;;;;;;8.40;6.70;;;;;20.10;101343.00;;;;2103274;28;20588;-51
2023/02/03 01:28:55;;;;;;;8.93;6.70;;;;;20.10;101340.00;;;;2103396;28;20312;-54
2023/02/03 01:29:56;;;;;;;7.90;6.60;;;;;20.10;101340.00;;;;2086869;28;20228;-54
2023/02/03 01:30:56;;;;;;;7.13;6.10;;;;;20.10;101334.00;;;;2086569;28;20225;-53
2023/02/03 01:31:56;;;;;;;7.53;6.70;;;;;20.10;101331.00;;;;2103848;28;20219;-53
2023/02/03 01:32:57;;;;;;;8.10;7.03;;;;;20.10;101335.00;;;;2103722;28;20212;-52
2023/02/03 01:33:57;;;;;;;8.23;7.43;;;;;20.00;101327.00;;;;2103809;28;20207;-50
2023/02/03 01:34:57;;;;;;;9.13;6.57;;;;;20.10;101326.00;;;;2103866;28;20294;-52
2023/02/03 01:35:59;;;;;;;7.87;7.10;;;;;20.00;101319.00;;;;2103590;28;20215;-51
2023/02/03 01:37:00;;;;;;;7.05;6.13;;;;;20.10;101335.00;;;;2103644;28;20215;-52
2023/02/03 01:38:00;;;;;;;8.37;7.00;;;;;20.10;101335.00;;;;2101550;28;20207;-52
2023/02/03 01:39:00;;;;;;;6.77;6.10;;;;;20.10;101339.00;;;;2103645;28;20207;-54
2023/02/03 01:40:01;;;;;;;6.37;5.77;;;;;20.10;101331.00;;;;2103809;28;20219;-53
2023/02/03 01:41:02;;;;;;;7.20;6.50;;;;;20.10;101340.00;;;;2094660;28;20299;-54
2023/02/03 01:42:02;;;;;;;7.80;7.00;;;;;20.10;101340.00;;;;2086703;28;20244;-53
2023/02/03 01:43:03;;;;;;;7.70;6.90;;;;;20.10;101338.00;;;;2094916;28;20486;-51
2023/02/03 01:44:38;;;;;;;7.23;6.50;;;;;20.10;101339.00;;;;2103698;28;20212;-53
2023/02/03 01:45:39;;;;;;;7.22;6.50;;;;;20.00;101332.00;;;;2094772;28;20219;-53
2023/02/03 01:46:43;;;;;;;8.60;6.37;;;;;20.00;101340.00;;;;2094694;28;20236;-54
2023/02/03 01:47:47;;;;;;;7.18;6.47;;;;;20.10;101346.00;;;;2094724;28;20295;-53
2023/02/03 01:48:47;;;;;;;7.25;6.55;;;;;20.00;101330.00;;;;2085912;28;20223;-54
2023/02/03 01:49:54;;;;;;;9.00;6.60;;;;;20.00;101337.00;;;;2094131;28;20231;-53
2023/02/03 01:50:54;;;;;;;9.23;6.50;;;;;20.00;101338.00;;;;2086508;28;20220;-50
2023/02/03 01:51:54;;;;;;;7.20;6.50;;;;;20.00;101332.00;;;;2087265;28;20216;-50
2023/02/03 01:52:58;;;;;;;7.40;6.20;;;;;20.00;101309.00;;;;2103850;28;20226;-52
2023/02/03 01:53:58;;;;;;;6.50;5.80;;;;;20.00;101330.00;;;;2086783;28;20205;-51
2023/02/03 01:54:59;;;;;;;7.53;6.50;;;;;20.00;101324.00;;;;2086327;28;20743;-52
2023/02/03 01:56:00;;;;;;;6.38;5.78;;;;;20.00;101322.00;;;;2094773;28;20266;-53
2023/02/03 01:57:02;;;;;;;8.00;6.00;;;;;20.00;101320.00;;;;2094955;28;20338;-52
2023/02/03 01:58:06;;;;;;;6.68;5.63;;;;;20.00;101331.00;;;;2085132;28;20276;-53
2023/02/03 01:59:06;;;;;;;6.43;5.82;;;;;20.00;101329.00;;;;2070454;28;20261;-53
2023/02/03 02:00:08;;;;;;;7.00;6.30;;;;;19.90;101332.00;;;;2077960;28;20217;-52
2023/02/03 02:01:08;;;;;;;6.88;6.05;;;;;20.00;101331.00;;;;2086350;28;20239;-52
2023/02/03 02:02:09;;;;;;;6.73;6.00;;;;;20.00;101327.00;;;;2086480;28;20751;-51
2023/02/03 02:03:09;;;;;;;6.63;6.00;;;;;20.00;101325.00;;;;2095344;28;20550;-52
2023/02/03 02:04:09;;;;;;;6.47;5.87;;;;;20.00;101337.00;;;;2085925;28;20217;-52
2023/02/03 02:05:26;;;;;;;6.90;5.90;;;;;20.00;101331.00;;;;2094356;28;20252;-53
2023/02/03 02:06:27;;;;;;;7.47;6.00;;;;;20.00;101342.00;;;;2085995;28;20247;-52
2023/02/03 02:07:27;;;;;;;6.50;5.90;;;;;20.00;101333.00;;;;2086833;28;20942;-50
2023/02/03 02:08:28;;;;;;;6.90;6.20;;;;;19.90;101334.00;;;;2085551;28;20572;-53
2023/02/03 02:09:28;;;;;;;6.47;5.80;;;;;19.90;101316.00;;;;2094496;28;20220;-52
2023/02/03 02:10:29;;;;;;;6.13;5.60;;;;;20.00;101318.00;;;;2094207;28;20314;-53
2023/02/03 02:11:29;;;;;;;6.82;5.65;;;;;20.00;101316.00;;;;2094880;28;20650;-51
2023/02/03 02:12:30;;;;;;;8.33;6.20;;;;;20.00;101310.00;;;;2095257;28;20220;-52
2023/02/03 02:13:31;;;;;;;7.53;5.90;;;;;20.00;101307.00;;;;2095275;28;20211;-53
2023/02/03 02:14:32;;;;;;;7.60;5.80;;;;;20.00;101312.00;;;;2086237;28;20219;-54
2023/02/03 02:15:49;;;;;;;6.75;5.15;;;;;20.00;101305.00;;;;2086676;28;20209;-54
2023/02/03 02:16:59;;;;;;;6.53;5.40;;;;;20.00;101306.00;;;;2078033;28;20216;-51
2023/02/03 02:18:12;;;;;;;6.43;5.78;;;;;20.00;101314.00;;;;2070941;28;20323;-53
2023/02/03 02:19:31;;;;;;;6.10;5.50;;;;;20.00;101310.00;;;;2073262;28;20217;-54
2023/02/03 02:20:52;;;;;;;6.22;5.30;;;;;20.00;101304.00;;;;2088644;28;20219;-53
2023/02/03 02:22:00;;;;;;;6.43;5.40;;;;;20.00;101302.00;;;;2085977;28;20248;-54
2023/02/03 02:23:12;;;;;;;6.82;5.72;;;;;19.90;101296.00;;;;2079751;28;20733;-51
2023/02/03 02:25:03;;;;;;;7.60;5.50;;;;;19.90;101299.00;;;;2087972;28;20228;-50
2023/02/03 02:26:37;;;;;;;5.53;5.00;;;;;19.90;101282.00;;;;2061135;28;20215;-54
2023/02/03 02:27:55;;;;;;;7.65;5.20;;;;;19.90;101282.00;;;;2094910;28;20212;-52
2023/02/03 02:29:14;;;;;;;6.13;5.53;;;;;19.90;101281.00;;;;2094224;28;20215;-53
2023/02/03 02:30:59;;;;;;;5.82;5.22;;;;;19.90;101277.00;;;;2095208;28;20366;-50
2023/02/03 02:32:19;;;;;;;5.45;4.95;;;;;19.90;101283.00;;;;2073016;28;20318;-52
2023/02/03 02:33:32;;;;;;;8.65;5.15;;;;;19.90;101278.00;;;;2077080;28;20209;-53
2023/02/03 02:34:50;;;;;;;5.60;5.07;;;;;19.90;101277.00;;;;2082619;28;20205;-51
2023/02/03 02:36:07;;;;;;;5.57;4.95;;;;;19.90;101287.00;;;;2076978;28;20601;-51
2023/02/03 02:37:34;;;;;;;5.90;5.22;;;;;19.90;101281.00;;;;2083424;28;20216;-52
2023/02/03 02:38:53;;;;;;;5.72;5.10;;;;;19.90;101280.00;;;;2085193;28;20698;-52
2023/02/03 02:40:02;;;;;;;6.15;5.00;;;;;19.90;101272.00;;;;2081197;28;20204;-52
2023/02/03 02:41:09;;;;;;;6.00;5.10;;;;;19.90;101237.00;;;;2080114;28;20219;-52
2023/02/03 02:42:56;;;;;;;6.65;5.22;;;;;19.90;101262.00;;;;2086288;28;20213;-54
2023/02/03 02:44:04;;;;;;;7.18;5.13;;;;;19.90;101265.00;;;;2083072;28;20208;-51
2023/02/03 02:45:11;;;;;;;6.00;5.40;;;;;19.90;101258.00;;;;2094367;28;20207;-53
2023/02/03 02:46:33;;;;;;;6.57;5.13;;;;;19.90;101262.00;;;;2077168;28;20213;-51
2023/02/03 02:47:33;;;;;;;5.68;5.00;;;;;19.90;101268.00;;;;2080576;28;20221;-52
2023/02/03 02:48:39;;;;;;;5.53;4.53;;;;;19.90;101279.00;;;;2076823;28;21111;-53
2023/02/03 02:50:08;;;;;;;5.25;4.40;;;;;19.90;101270.00;;;;2086271;28;20299;-51
2023/02/03 02:51:09;;;;;;;5.20;4.60;;;;;19.80;101279.00;;;;2076678;28;20217;-52
2023/02/03 02:52:09;;;;;;;5.33;4.83;;;;;19.90;101269.00;;;;2071742;28;20586;-53
2023/02/03 02:53:09;;;;;;;6.43;4.23;;;;;19.90;101260.00;;;;2069153;28;20222;-54
2023/02/03 02:54:12;;;;;;;5.80;4.80;;;;;19.90;101257.00;;;;2085311;28;20225;-53
2023/02/03 02:55:28;;;;;;;5.15;4.53;;;;;19.90;101250.00;;;;2077737;28;20709;-54
2023/02/03 02:56:28;;;;;;;7.70;4.85;;;;;19.90;101253.00;;;;2053959;28;20632;-51
2023/02/03 02:57:28;;;;;;;5.53;5.03;;;;;19.80;101248.00;;;;2064075;28;20211;-52
2023/02/03 02:58:29;;;;;;;5.07;4.63;;;;;19.80;101237.00;;;;2084948;28;20708;-53
2023/02/03 02:59:29;;;;;;;5.87;4.67;;;;;19.80;101242.00;;;;2085635;28;20943;-53
2023/02/03 03:00:30;;;;;;;5.47;4.60;;;;;19.80;101254.00;;;;2094438;28;20989;-53
2023/02/03 03:01:30;;;;;;;6.30;3.97;;;;;19.80;101248.00;;;;2102629;28;20216;-52
2023/02/03 03:02:32;;;;;;;5.23;4.37;;;;;19.80;101245.00;;;;2103379;28;20458;-52
2023/02/03 03:03:33;;;;;;;5.88;4.68;;;;;19.80;101240.00;;;;2094229;28;20884;-54
2023/02/03 03:04:33;;;;;;;5.70;4.50;;;;;19.80;101255.00;;;;2094344;28;20208;-53
2023/02/03 03:05:33;;;;;;;4.57;4.10;;;;;19.90;101250.00;;;;2094148;28;20318;-53
2023/02/03 03:06:36;;;;;;;4.53;4.13;;;;;19.80;101252.00;;;;2085502;28;20214;-54
2023/02/03 03:07:45;;;;;;;6.65;4.07;;;;;19.80;101255.00;;;;2078191;28;20220;-53
2023/02/03 03:09:06;;;;;;;5.63;4.30;;;;;19.80;101256.00;;;;2085882;28;20213;-51
2023/02/03 03:10:09;;;;;;;5.85;4.50;;;;;19.80;101261.00;;;;2097412;28;20212;-50
2023/02/03 03:11:09;;;;;;;5.00;4.50;;;;;19.80;101281.00;;;;2093640;28;20299;-54
2023/02/03 03:12:16;;;;;;;4.83;4.20;;;;;19.80;101282.00;;;;2093780;28;20216;-53
2023/02/03 03:13:20;;;;;;;5.45;4.20;;;;;19.80;101294.00;;;;2086135;28;20212;-54
2023/02/03 03:14:21;;;;;;;4.95;3.85;;;;;19.80;101291.00;;;;2079208;28;20209;-54
2023/02/03 03:15:26;;;;;;;4.87;4.37;;;;;19.80;101282.00;;;;2086060;28;20236;-53
2023/02/03 03:16:26;;;;;;;4.47;4.00;;;;;19.80;101283.00;;;;2086339;28;20451;-53
2023/02/03 03:17:30;;;;;;;5.63;4.53;;;;;19.80;101283.00;;;;2085608;28;20255;-53
2023/02/03 03:18:36;;;;;;;5.15;4.40;;;;;19.80;101281.00;;;;2076802;28;20267;-55
2023/02/03 03:19:42;;;;;;;5.53;4.00;;;;;19.80;101297.00;;;;2086663;28;20220;-53
2023/02/03 03:20:43;;;;;;;4.82;3.90;;;;;19.80;101289.00;;;;2078922;28;20210;-53
2023/02/03 03:21:48;;;;;;;5.28;3.97;;;;;19.80;101277.00;;;;2077465;28;20226;-52
2023/02/03 03:22:56;;;;;;;4.38;3.97;;;;;19.70;101273.00;;;;2086311;28;20211;-53
2023/02/03 03:23:57;;;;;;;3.85;3.45;;;;;19.70;101273.00;;;;2086752;28;20220;-51
2023/02/03 03:25:00;;;;;;;6.32;3.97;;;;;19.80;101264.00;;;;2094185;28;20208;-52
2023/02/03 03:26:03;;;;;;;7.00;4.45;;;;;19.80;101273.00;;;;2085625;28;20266;-57
2023/02/03 03:27:07;;;;;;;5.88;3.80;;;;;19.80;101263.00;;;;2078314;28;20216;-51
2023/02/03 03:28:14;;;;;;;4.47;3.60;;;;;19.80;101270.00;;;;2084805;28;20752;-51
2023/02/03 03:29:29;;;;;;;5.72;3.90;;;;;19.80;101276.00;;;;2079299;28;20224;-53
2023/02/03 03:30:32;;;;;;;6.70;3.58;;;;;19.70;101279.00;;;;2086047;28;20222;-54
2023/02/03 03:31:33;;;;;;;5.65;4.03;;;;;19.80;101279.00;;;;2077701;28;20273;-54
2023/02/03 03:32:33;;;;;;;5.37;3.90;;;;;19.80;101260.00;;;;2085894;28;20213;-54
2023/02/03 03:33:33;;;;;;;5.70;3.57;;;;;19.80;101274.00;;;;2084546;28;20220;-54
2023/02/03 03:34:34;;;;;;;3.53;2.93;;;;;19.80;101282.00;;;;2077601;28;20228;-54
2023/02/03 03:36:02;;;;;;;4.30;3.53;;;;;19.80;101268.00;;;;2094280;28;20231;-51
2023/02/03 03:37:07;;;;;;;4.68;3.60;;;;;19.80;101272.00;;;;2087975;28;20676;-50
2023/02/03 03:38:20;;;;;;;3.42;2.92;;;;;19.80;101259.00;;;;2093814;28;21023;-52
2023/02/03 03:39:41;;;;;;;3.72;3.20;;;;;19.70;101275.00;;;;2085125;28;20213;-50
2023/02/03 03:40:44;;;;;;;5.10;3.53;;;;;19.80;101266.00;;;;2083217;28;20252;-54
2023/02/03 03:42:01;;;;;;;5.38;3.45;;;;;19.80;101274.00;;;;2086700;28;20299;-54
2023/02/03 03:43:05;;;;;;;3.88;3.38;;;;;19.80;101279.00;;;;2088221;28;20304;-53
2023/02/03 03:44:07;;;;;;;3.60;2.95;;;;;19.80;101274.00;;;;2078652;28;20217;-54
2023/02/03 03:45:15;;;;;;;3.63;2.92;;;;;19.80;101270.00;;;;2086236;28;20709;-51
2023/02/03 03:46:18;;;;;;;3.45;2.90;;;;;19.70;101276.00;;;;2095503;28;20220;-52
2023/02/03 03:47:37;;;;;;;4.20;2.90;;;;;19.70;101275.00;;;;2084568;28;20585;-52
2023/02/03 03:48:46;;;;;;;3.67;2.78;;;;;19.70;101264.00;;;;2081771;28;20282;-51
2023/02/03 03:49:46;;;;;;;3.53;3.08;;;;;19.70;101272.00;;;;2086609;28;20708;-52
2023/02/03 03:50:51;;;;;;;5.20;3.10;;;;;19.70;101280.00;;;;2092373;28;20208;-51
2023/02/03 03:51:56;;;;;;;6.20;3.30;;;;;19.70;101275.00;;;;2084005;28;20217;-53
2023/02/03 03:52:57;;;;;;;4.97;3.25;;;;;19.70;101265.00;;;;2070223;28;20238;-51
2023/02/03 03:54:00;;;;;;;3.73;3.03;;;;;19.70;101266.00;;;;2069378;28;20210;-51
2023/02/03 03:55:03;;;;;;;3.40;3.10;;;;;19.70;101277.00;;;;2078092;28;20213;-53
2023/02/03 03:56:05;;;;;;;4.05;2.88;;;;;19.70;101268.00;;;;2085026;28;20222;-52
2023/02/03 03:57:08;;;;;;;5.82;3.20;;;;;19.70;101264.00;;;;2077668;28;20215;-55
2023/02/03 03:58:10;;;;;;;3.40;2.83;;;;;19.70;101273.00;;;;2076037;28;20308;-54
2023/02/03 03:59:11;;;;;;;3.97;2.60;;;;;19.70;101266.00;;;;2077150;28;20206;-53
2023/02/03 04:00:13;;;;;;;4.37;2.80;;;;;19.70;101261.00;;;;2085103;28;20205;-53
2023/02/03 04:01:14;;;;;;;4.53;3.03;;;;;19.70;101258.00;;;;2085041;28;20224;-51
2023/02/03 04:02:15;;;;;;;4.60;3.00;;;;;19.70;101267.00;;;;2084551;28;20688;-53
2023/02/03 04:03:17;;;;;;;4.78;3.10;;;;;19.70;101259.00;;;;2084851;28;20577;-53
2023/02/03 04:04:18;;;;;;;4.22;3.05;;;;;19.70;101256.00;;;;2077326;28;20291;-50
2023/02/03 04:05:19;;;;;;;4.50;2.90;;;;;19.70;101261.00;;;;2076387;28;20673;-54
2023/02/03 04:06:19;;;;;;;6.57;3.53;;;;;19.70;101276.00;;;;2085024;28;20758;-54
2023/02/03 04:07:19;;;;;;;4.37;3.10;;;;;19.60;101273.00;;;;2093708;28;20304;-53
2023/02/03 04:08:20;;;;;;;3.50;2.93;;;;;19.60;101270.00;;;;2092662;28;20208;-53
2023/02/03 04:09:20;;;;;;;4.30;3.10;;;;;19.70;101269.00;;;;2093542;28;20273;-51
2023/02/03 04:10:31;;;;;;;4.53;2.90;;;;;19.60;101268.00;;;;2093317;28;20215;-52
2023/02/03 04:12:50;;;;;;;4.70;2.90;;;;;19.60;101283.00;;;;2096800;28;20645;-52
2023/02/03 04:13:51;;;;;;;2.97;2.67;;;;;19.70;101260.00;;;;2103088;28;20215;-53
2023/02/03 04:14:51;;;;;;;3.97;2.70;;;;;19.60;101274.00;;;;2103232;28;20288;-54
2023/02/03 04:15:51;;;;;;;5.33;2.70;;;;;19.60;101271.00;;;;2103186;28;20235;-52
2023/02/03 04:16:52;;;;;;;4.50;3.00;;;;;19.60;101265.00;;;;2103213;28;20702;-54
2023/02/03 04:17:53;;;;;;;4.37;2.73;;;;;19.60;101258.00;;;;2093817;28;20734;-54
2023/02/03 04:18:54;;;;;;;4.47;3.10;;;;;19.70;101260.00;;;;2093135;28;20212;-52
2023/02/03 04:19:54;;;;;;;3.70;3.10;;;;;19.70;101271.00;;;;2102972;28;20211;-53
2023/02/03 04:20:54;;;;;;;4.67;2.97;;;;;19.70;101255.00;;;;2102885;28;20697;-54
2023/02/03 04:21:55;;;;;;;4.03;2.70;;;;;19.60;101261.00;;;;2102760;28;20717;-54
2023/02/03 04:22:55;;;;;;;3.10;2.70;;;;;19.60;101245.00;;;;2103361;28;20208;-51
2023/02/03 04:23:55;;;;;;;5.20;2.80;;;;;19.60;101246.00;;;;2104487;28;20207;-53
2023/02/03 04:24:57;;;;;;;4.00;2.93;;;;;19.60;101248.00;;;;2104403;28;20207;-52
2023/02/03 04:25:59;;;;;;;4.55;2.50;;;;;19.60;101257.00;;;;2104759;28;20215;-53
2023/02/03 04:27:00;;;;;;;4.28;2.78;;;;;19.60;101253.00;;;;2104711;28;20212;-54
2023/02/03 04:28:00;;;;;;;3.80;2.50;;;;;19.60;101253.00;;;;2103644;28;20221;-54
2023/02/03 04:29:01;;;;;;;4.80;3.37;;;;;19.60;101252.00;;;;2104393;28;20215;-53
2023/02/03 04:30:01;;;;;;;4.30;3.07;;;;;19.60;101263.00;;;;2095105;28;20332;-52
2023/02/03 04:31:03;;;;;;;3.50;2.80;;;;;19.60;101257.00;;;;2086797;28;20276;-54
2023/02/03 04:32:03;;;;;;;5.70;2.97;;;;;19.60;101277.00;;;;2094314;28;20220;-53
2023/02/03 04:33:03;;;;;;;4.10;2.77;;;;;19.60;101275.00;;;;2103081;28;20234;-51
2023/02/03 04:34:04;;;;;;;3.40;2.50;;;;;19.60;101263.00;;;;2104024;28;20263;-53
2023/02/03 04:35:05;;;;;;;4.17;2.83;;;;;19.60;101248.00;;;;2103617;28;20675;-53
2023/02/03 04:36:06;;;;;;;4.00;2.50;;;;;19.60;101261.00;;;;2103590;28;20484;-52
2023/02/03 04:37:06;;;;;;;3.57;2.37;;;;;19.60;101244.00;;;;2104160;28;20614;-53
2023/02/03 04:38:07;;;;;;;3.40;2.30;;;;;19.60;101250.00;;;;2102961;28;20621;-53
2023/02/03 04:39:07;;;;;;;3.70;2.70;;;;;19.60;101256.00;;;;2103522;28;20284;-51
2023/02/03 04:40:08;;;;;;;4.57;3.40;;;;;19.60;101254.00;;;;2103695;28;20290;-53
2023/02/03 04:41:08;;;;;;;2.73;2.40;;;;;19.60;101255.00;;;;2103665;28;20221;-51
2023/02/03 04:42:08;;;;;;;3.43;2.60;;;;;19.60;101259.00;;;;2103627;28;20449;-52
2023/02/03 04:43:09;;;;;;;2.97;2.50;;;;;19.60;101255.00;;;;2103853;28;20207;-53
2023/02/03 04:44:09;;;;;;;4.00;2.60;;;;;19.60;101257.00;;;;2103803;28;20211;-54
2023/02/03 04:45:10;;;;;;;3.90;2.63;;;;;19.60;101253.00;;;;2103408;28;20786;-52
2023/02/03 04:46:10;;;;;;;5.30;2.97;;;;;19.60;101238.00;;;;2094651;28;20200;-51
2023/02/03 04:47:11;;;;;;;4.03;2.53;;;;;19.60;101251.00;;;;2095024;28;20447;-54
2023/02/03 04:48:11;;;;;;;6.83;2.70;;;;;19.60;101249.00;;;;2102264;28;20218;-51
2023/02/03 04:49:11;;;;;;;4.70;2.93;;;;;19.60;101254.00;;;;2103327;28;20239;-51
2023/02/03 04:50:12;;;;;;;5.00;2.70;;;;;19.60;101256.00;;;;2103719;28;20207;-52
2023/02/03 04:51:12;;;;;;;3.53;2.20;;;;;19.60;101254.00;;;;2103742;28;20454;-51
2023/02/03 04:52:13;;;;;;;6.33;2.53;;;;;19.60;101249.00;;;;2103702;28;20309;-53
2023/02/03 04:53:13;;;;;;;4.20;2.40;;;;;19.60;101245.00;;;;2103833;28;20269;-52
2023/02/03 04:54:13;;;;;;;3.17;2.87;;;;;19.50;101238.00;;;;2104378;28;20218;-53
2023/02/03 04:55:14;;;;;;;3.90;2.40;;;;;19.50;101234.00;;;;2104143;28;20204;-52
2023/02/03 04:56:15;;;;;;;4.93;2.80;;;;;19.60;101239.00;;;;2104389;28;20517;-54
2023/02/03 04:57:15;;;;;;;3.05;2.35;;;;;19.60;101262.00;;;;2103912;28;20208;-53
2023/02/03 04:58:16;;;;;;;2.93;2.40;;;;;19.50;101254.00;;;;2103179;28;20207;-54
2023/02/03 04:59:16;;;;;;;5.07;2.20;;;;;19.50;101242.00;;;;2104190;28;20208;-52
2023/02/03 05:00:16;;;;;;;4.47;2.47;;;;;19.50;101227.00;;;;2104271;28;20272;-54
2023/02/03 05:01:17;;;;;;;6.27;2.50;;;;;19.60;101226.00;;;;2104169;28;20211;-50
2023/02/03 05:02:17;;;;;;;4.23;2.60;;;;;19.60;101237.00;;;;2103674;28;20242;-51
2023/02/03 05:03:17;;;;;;;3.50;2.87;;;;;19.60;101239.00;;;;2102908;28;20734;-50
2023/02/03 05:04:18;;;;;;;2.77;2.33;;;;;19.60;101221.00;;;;2104020;28;20227;-52
2023/02/03 05:05:18;;;;;;;4.23;2.50;;;;;19.60;101223.00;;;;2104103;28;20212;-52
2023/02/03 05:06:23;;;;;;;2.00;1.80;;;;;19.60;101224.00;;;;2104109;28;20204;-50
2023/02/03 05:07:23;;;;;;;4.68;2.35;;;;;19.60;101232.00;;;;2104137;28;20214;-51
2023/02/03 05:08:24;;;;;;;3.30;2.20;;;;;19.60;101224.00;;;;2103327;28;20211;-52
2023/02/03 05:09:24;;;;;;;3.70;2.63;;;;;19.50;101216.00;;;;2104211;28;20219;-54
2023/02/03 05:10:25;;;;;;;3.10;2.20;;;;;19.50;101218.00;;;;2104049;28;20253;-53
2023/02/03 05:11:25;;;;;;;3.60;2.20;;;;;19.60;101237.00;;;;2104159;28;20290;-53
2023/02/03 05:12:25;;;;;;;3.70;2.50;;;;;19.50;101233.00;;;;2104002;28;20227;-54
2023/02/03 05:13:26;;;;;;;3.93;2.20;;;;;19.50;101222.00;;;;2103741;28;20204;-52
2023/02/03 05:14:26;;;;;;;3.97;2.20;;;;;19.50;101225.00;;;;2104133;28;20253;-53